sensor_id;sensor_type;location;lat;lon;timestamp;pressure;altitude;pressure_sealevel;temperature;humidity
23131;BME280;11734;51.046;13.778;2022-08-25T00:02:07;71441.16;;;19.30;100.00
23131;BME280;11734;51.046;13.778;2022-08-25T00:04:36;71389.03;;;18.99;100.00
23131;BME280;11734;51.046;13.778;2022-08-25T00:07:05;71451.81;;;19.35;100.00
23131;BME280;11734;51.046;13.778;2022-08-25T00:09:33;71414.94;;;19.30;100.00
23131;BME280;11734;51.046;13.778;2022-08-25T00:12:03;71431.31;;;19.28;100.00
23131;BME280;11734;51.046;13.778;2022-08-25T00:14:35;71454.91;;;19.23;100.00
23131;BME280;11734;51.046;13.778;2022-08-25T00:17:04;71494.59;;;19.05;100.00
23131;BME280;11734;51.046;13.778;2022-08-25T00:19:36;71464.44;;;19.22;100.00
23131;BME280;11734;51.046;13.778;2022-08-25T00:22:06;71453.97;;;19.25;100.00
23131;BME280;11734;51.046;13.778;2022-08-25T00:24:34;71428.19;;;19.14;100.00
23131;BME280;11734;51.046;13.778;2022-08-25T00:27:01;71379.97;;;19.14;100.00
23131;BME280;11734;51.046;13.778;2022-08-25T00:29:30;71432.34;;;19.13;100.00
23131;BME280;11734;51.046;13.778;2022-08-25T00:31:59;71418.72;;;19.06;100.00
23131;BME280;11734;51.046;13.778;2022-08-25T00:34:33;71403.28;;;19.02;100.00
23131;BME280;11734;51.046;13.778;2022-08-25T00:37:03;71425.59;;;19.01;100.00
23131;BME280;11734;51.046;13.778;2022-08-25T00:39:32;71388.47;;;18.94;100.00
23131;BME280;11734;51.046;13.778;2022-08-25T00:42:00;71417.69;;;18.87;100.00
23131;BME280;11734;51.046;13.778;2022-08-25T00:44:31;71434.84;;;18.97;100.00
23131;BME280;11734;51.046;13.778;2022-08-25T00:47:02;71421.16;;;18.99;100.00
23131;BME280;11734;51.046;13.778;2022-08-25T00:49:55;71390.78;;;18.62;100.00
23131;BME280;11734;51.046;13.778;2022-08-25T00:52:33;71385.56;;;18.87;100.00
23131;BME280;11734;51.046;13.778;2022-08-25T00:55:35;71385.06;;;18.73;100.00
23131;BME280;11734;51.046;13.778;2022-08-25T00:58:12;71392.41;;;18.86;100.00
23131;BME280;11734;51.046;13.778;2022-08-25T01:00:46;71374.50;;;18.55;100.00
23131;BME280;11734;51.046;13.778;2022-08-25T01:03:16;71422.53;;;18.73;100.00
23131;BME280;11734;51.046;13.778;2022-08-25T01:05:46;71391.59;;;18.74;100.00
23131;BME280;11734;51.046;13.778;2022-08-25T01:08:14;71406.75;;;18.80;100.00
23131;BME280;11734;51.046;13.778;2022-08-25T01:10:44;71390.78;;;18.66;100.00
23131;BME280;11734;51.046;13.778;2022-08-25T01:13:32;71368.69;;;18.75;100.00
23131;BME280;11734;51.046;13.778;2022-08-25T01:16:00;71395.22;;;18.68;100.00
23131;BME280;11734;51.046;13.778;2022-08-25T01:18:42;71408.88;;;18.70;100.00
23131;BME280;11734;51.046;13.778;2022-08-25T01:21:10;71365.47;;;18.70;100.00
23131;BME280;11734;51.046;13.778;2022-08-25T01:23:37;71405.38;;;18.63;100.00
23131;BME280;11734;51.046;13.778;2022-08-25T01:26:17;71386.88;;;18.70;100.00
23131;BME280;11734;51.046;13.778;2022-08-25T01:28:51;71402.94;;;18.70;100.00
23131;BME280;11734;51.046;13.778;2022-08-25T01:31:38;71400.88;;;18.66;100.00
23131;BME280;11734;51.046;13.778;2022-08-25T01:34:07;71427.03;;;18.70;100.00
23131;BME280;11734;51.046;13.778;2022-08-25T01:36:35;71343.38;;;18.40;100.00
23131;BME280;11734;51.046;13.778;2022-08-25T01:39:04;71341.59;;;18.38;100.00
23131;BME280;11734;51.046;13.778;2022-08-25T01:44:07;71352.66;;;18.31;100.00
23131;BME280;11734;51.046;13.778;2022-08-25T01:46:40;71341.50;;;18.13;100.00
23131;BME280;11734;51.046;13.778;2022-08-25T01:49:07;71347.88;;;18.36;100.00
23131;BME280;11734;51.046;13.778;2022-08-25T01:51:46;71340.28;;;18.60;100.00
23131;BME280;11734;51.046;13.778;2022-08-25T01:54:14;71385.78;;;18.60;100.00
23131;BME280;11734;51.046;13.778;2022-08-25T01:56:41;71349.72;;;18.24;100.00
23131;BME280;11734;51.046;13.778;2022-08-25T01:59:09;71346.91;;;18.43;100.00
23131;BME280;11734;51.046;13.778;2022-08-25T02:01:36;71397.72;;;18.52;100.00
23131;BME280;11734;51.046;13.778;2022-08-25T02:04:03;71407.81;;;18.56;100.00
23131;BME280;11734;51.046;13.778;2022-08-25T02:06:34;71382.84;;;18.53;100.00
23131;BME280;11734;51.046;13.778;2022-08-25T02:09:08;71296.28;;;18.15;100.00
23131;BME280;11734;51.046;13.778;2022-08-25T02:11:38;71356.41;;;18.46;100.00
23131;BME280;11734;51.046;13.778;2022-08-25T02:14:07;71376.91;;;18.48;100.00
23131;BME280;11734;51.046;13.778;2022-08-25T02:16:38;71355.19;;;18.50;100.00
23131;BME280;11734;51.046;13.778;2022-08-25T02:19:09;71359.25;;;18.23;100.00
23131;BME280;11734;51.046;13.778;2022-08-25T02:21:38;71392.97;;;18.48;100.00
23131;BME280;11734;51.046;13.778;2022-08-25T02:24:07;71347.38;;;18.18;100.00
23131;BME280;11734;51.046;13.778;2022-08-25T02:26:35;71332.38;;;18.37;100.00
23131;BME280;11734;51.046;13.778;2022-08-25T02:29:04;71322.72;;;18.17;100.00
23131;BME280;11734;51.046;13.778;2022-08-25T02:31:34;71389.13;;;18.42;100.00
23131;BME280;11734;51.046;13.778;2022-08-25T02:34:02;71380.50;;;18.42;100.00
23131;BME280;11734;51.046;13.778;2022-08-25T02:36:30;71344.69;;;18.22;100.00
23131;BME280;11734;51.046;13.778;2022-08-25T02:38:59;71319.28;;;18.40;100.00
23131;BME280;11734;51.046;13.778;2022-08-25T02:41:27;71301.81;;;18.31;100.00
23131;BME280;11734;51.046;13.778;2022-08-25T02:43:59;71340.06;;;18.44;100.00
23131;BME280;11734;51.046;13.778;2022-08-25T02:46:27;71352.53;;;18.45;100.00
23131;BME280;11734;51.046;13.778;2022-08-25T02:48:54;71335.38;;;18.35;100.00
23131;BME280;11734;51.046;13.778;2022-08-25T02:51:23;71344.84;;;18.43;100.00
23131;BME280;11734;51.046;13.778;2022-08-25T02:53:51;71238.31;;;17.84;100.00
23131;BME280;11734;51.046;13.778;2022-08-25T02:56:19;71324.34;;;18.37;100.00
23131;BME280;11734;51.046;13.778;2022-08-25T02:58:47;71319.88;;;18.40;100.00
23131;BME280;11734;51.046;13.778;2022-08-25T03:01:15;71294.34;;;18.36;100.00
23131;BME280;11734;51.046;13.778;2022-08-25T03:03:46;71279.63;;;18.19;100.00
23131;BME280;11734;51.046;13.778;2022-08-25T03:06:17;71319.63;;;18.33;100.00
23131;BME280;11734;51.046;13.778;2022-08-25T03:08:46;71320.28;;;18.29;100.00
23131;BME280;11734;51.046;13.778;2022-08-25T03:11:13;71312.28;;;18.24;100.00
23131;BME280;11734;51.046;13.778;2022-08-25T03:13:40;71268.00;;;17.82;100.00
23131;BME280;11734;51.046;13.778;2022-08-25T03:16:08;71284.78;;;18.08;100.00
23131;BME280;11734;51.046;13.778;2022-08-25T03:18:40;71289.09;;;18.23;100.00
23131;BME280;11734;51.046;13.778;2022-08-25T03:21:10;71311.09;;;18.23;100.00
23131;BME280;11734;51.046;13.778;2022-08-25T03:23:40;71395.25;;;18.15;100.00
23131;BME280;11734;51.046;13.778;2022-08-25T03:26:08;71270.75;;;18.16;100.00
23131;BME280;11734;51.046;13.778;2022-08-25T03:28:54;71304.63;;;18.13;100.00
23131;BME280;11734;51.046;13.778;2022-08-25T03:31:23;71314.06;;;18.21;100.00
23131;BME280;11734;51.046;13.778;2022-08-25T03:33:52;71360.22;;;18.13;100.00
23131;BME280;11734;51.046;13.778;2022-08-25T03:36:19;71380.66;;;18.19;100.00
23131;BME280;11734;51.046;13.778;2022-08-25T03:38:46;71311.78;;;18.10;100.00
23131;BME280;11734;51.046;13.778;2022-08-25T03:41:23;71360.72;;;18.22;100.00
23131;BME280;11734;51.046;13.778;2022-08-25T03:43:56;71331.69;;;18.11;100.00
23131;BME280;11734;51.046;13.778;2022-08-25T03:46:30;71324.91;;;18.03;100.00
23131;BME280;11734;51.046;13.778;2022-08-25T03:49:01;71321.97;;;18.01;100.00
23131;BME280;11734;51.046;13.778;2022-08-25T03:51:33;71344.78;;;18.09;100.00
23131;BME280;11734;51.046;13.778;2022-08-25T03:54:03;71320.84;;;17.86;100.00
23131;BME280;11734;51.046;13.778;2022-08-25T03:56:30;71375.34;;;18.14;100.00
23131;BME280;11734;51.046;13.778;2022-08-25T03:58:57;71379.78;;;18.20;100.00
23131;BME280;11734;51.046;13.778;2022-08-25T04:01:25;71352.94;;;18.29;100.00
23131;BME280;11734;51.046;13.778;2022-08-25T04:03:53;71315.66;;;18.07;100.00
23131;BME280;11734;51.046;13.778;2022-08-25T04:06:21;71352.09;;;18.26;100.00
23131;BME280;11734;51.046;13.778;2022-08-25T04:08:49;71336.00;;;18.31;100.00
23131;BME280;11734;51.046;13.778;2022-08-25T04:11:21;71320.50;;;18.36;100.00
23131;BME280;11734;51.046;13.778;2022-08-25T04:13:50;71287.13;;;18.10;100.00
23131;BME280;11734;51.046;13.778;2022-08-25T04:16:22;71300.69;;;18.21;100.00
23131;BME280;11734;51.046;13.778;2022-08-25T04:18:53;71276.34;;;18.19;100.00
23131;BME280;11734;51.046;13.778;2022-08-25T04:21:21;71295.75;;;18.06;100.00
23131;BME280;11734;51.046;13.778;2022-08-25T04:23:50;71270.13;;;18.20;100.00
23131;BME280;11734;51.046;13.778;2022-08-25T04:26:23;71325.97;;;18.22;100.00
23131;BME280;11734;51.046;13.778;2022-08-25T04:28:51;71263.16;;;17.96;100.00
23131;BME280;11734;51.046;13.778;2022-08-25T04:31:19;71266.25;;;18.19;100.00
23131;BME280;11734;51.046;13.778;2022-08-25T04:33:48;71311.69;;;18.24;100.00
23131;BME280;11734;51.046;13.778;2022-08-25T04:36:18;71299.78;;;18.27;100.00
23131;BME280;11734;51.046;13.778;2022-08-25T04:38:48;71321.66;;;18.42;100.00
23131;BME280;11734;51.046;13.778;2022-08-25T04:41:19;71311.88;;;18.40;100.00
23131;BME280;11734;51.046;13.778;2022-08-25T04:43:47;71216.13;;;18.06;100.00
23131;BME280;11734;51.046;13.778;2022-08-25T04:48:48;71312.69;;;18.48;100.00
23131;BME280;11734;51.046;13.778;2022-08-25T04:51:21;71310.28;;;18.50;100.00
23131;BME280;11734;51.046;13.778;2022-08-25T04:53:50;71281.59;;;18.32;100.00
23131;BME280;11734;51.046;13.778;2022-08-25T04:56:21;71297.13;;;18.62;100.00
23131;BME280;11734;51.046;13.778;2022-08-25T04:58:53;71310.84;;;18.60;100.00
23131;BME280;11734;51.046;13.778;2022-08-25T05:01:24;71301.66;;;18.50;100.00
23131;BME280;11734;51.046;13.778;2022-08-25T05:03:56;71320.97;;;18.55;100.00
23131;BME280;11734;51.046;13.778;2022-08-25T05:06:26;71304.97;;;18.46;100.00
23131;BME280;11734;51.046;13.778;2022-08-25T05:08:56;71324.13;;;18.69;100.00
23131;BME280;11734;51.046;13.778;2022-08-25T05:11:25;71319.59;;;18.76;100.00
23131;BME280;11734;51.046;13.778;2022-08-25T05:13:55;71365.78;;;19.02;100.00
23131;BME280;11734;51.046;13.778;2022-08-25T05:16:25;71388.38;;;19.08;100.00
23131;BME280;11734;51.046;13.778;2022-08-25T05:18:54;71401.50;;;19.01;100.00
23131;BME280;11734;51.046;13.778;2022-08-25T05:21:25;71334.09;;;19.16;100.00
23131;BME280;11734;51.046;13.778;2022-08-25T05:23:58;71364.97;;;19.24;100.00
23131;BME280;11734;51.046;13.778;2022-08-25T05:26:30;71357.19;;;19.32;100.00
23131;BME280;11734;51.046;13.778;2022-08-25T05:29:00;71358.31;;;19.37;100.00
23131;BME280;11734;51.046;13.778;2022-08-25T05:31:32;71368.38;;;19.46;100.00
23131;BME280;11734;51.046;13.778;2022-08-25T05:34:05;71356.44;;;19.49;100.00
23131;BME280;11734;51.046;13.778;2022-08-25T05:36:34;71391.31;;;19.45;100.00
23131;BME280;11734;51.046;13.778;2022-08-25T05:39:02;71370.81;;;19.39;100.00
23131;BME280;11734;51.046;13.778;2022-08-25T05:41:30;71362.16;;;19.43;100.00
23131;BME280;11734;51.046;13.778;2022-08-25T05:43:57;71354.50;;;19.32;100.00
23131;BME280;11734;51.046;13.778;2022-08-25T05:46:25;71312.31;;;18.93;100.00
23131;BME280;11734;51.046;13.778;2022-08-25T05:48:53;71368.28;;;19.55;100.00
23131;BME280;11734;51.046;13.778;2022-08-25T05:51:21;71377.59;;;19.47;100.00
23131;BME280;11734;51.046;13.778;2022-08-25T05:53:50;71388.47;;;19.63;100.00
23131;BME280;11734;51.046;13.778;2022-08-25T05:56:18;71374.72;;;19.35;100.00
23131;BME280;11734;51.046;13.778;2022-08-25T05:58:46;71438.97;;;19.74;100.00
23131;BME280;11734;51.046;13.778;2022-08-25T06:01:26;71378.25;;;19.43;100.00
23131;BME280;11734;51.046;13.778;2022-08-25T06:04:16;71411.00;;;19.73;100.00
23131;BME280;11734;51.046;13.778;2022-08-25T06:06:44;71409.50;;;19.74;100.00
23131;BME280;11734;51.046;13.778;2022-08-25T06:09:11;71423.22;;;19.72;100.00
23131;BME280;11734;51.046;13.778;2022-08-25T06:11:39;71405.00;;;19.77;100.00
23131;BME280;11734;51.046;13.778;2022-08-25T06:14:08;71450.19;;;19.84;100.00
23131;BME280;11734;51.046;13.778;2022-08-25T06:16:37;71391.50;;;19.86;100.00
23131;BME280;11734;51.046;13.778;2022-08-25T06:19:07;71492.41;;;19.97;100.00
23131;BME280;11734;51.046;13.778;2022-08-25T06:21:35;71475.13;;;19.96;100.00
23131;BME280;11734;51.046;13.778;2022-08-25T06:24:06;71426.34;;;19.86;100.00
23131;BME280;11734;51.046;13.778;2022-08-25T06:26:39;71452.03;;;19.81;100.00
23131;BME280;11734;51.046;13.778;2022-08-25T06:29:06;71475.28;;;19.77;100.00
23131;BME280;11734;51.046;13.778;2022-08-25T06:31:33;71461.34;;;20.02;100.00
23131;BME280;11734;51.046;13.778;2022-08-25T06:34:00;71470.56;;;20.03;100.00
23131;BME280;11734;51.046;13.778;2022-08-25T06:36:27;71448.72;;;20.14;100.00
23131;BME280;11734;51.046;13.778;2022-08-25T06:38:55;71494.63;;;20.12;100.00
23131;BME280;11734;51.046;13.778;2022-08-25T06:41:22;71530.81;;;20.34;100.00
23131;BME280;11734;51.046;13.778;2022-08-25T06:43:49;71537.31;;;20.40;100.00
23131;BME280;11734;51.046;13.778;2022-08-25T06:46:29;71543.44;;;20.52;100.00
23131;BME280;11734;51.046;13.778;2022-08-25T06:49:06;71560.59;;;20.66;100.00
23131;BME280;11734;51.046;13.778;2022-08-25T06:51:34;71506.09;;;20.29;100.00
23131;BME280;11734;51.046;13.778;2022-08-25T06:54:05;71583.56;;;20.70;100.00
23131;BME280;11734;51.046;13.778;2022-08-25T06:56:33;71599.25;;;20.81;100.00
23131;BME280;11734;51.046;13.778;2022-08-25T06:59:05;71619.41;;;20.94;100.00
23131;BME280;11734;51.046;13.778;2022-08-25T07:01:33;71648.19;;;21.11;100.00
23131;BME280;11734;51.046;13.778;2022-08-25T07:04:03;71684.56;;;21.20;100.00
23131;BME280;11734;51.046;13.778;2022-08-25T07:06:36;71668.81;;;21.08;100.00
23131;BME280;11734;51.046;13.778;2022-08-25T07:09:06;71661.41;;;21.04;100.00
23131;BME280;11734;51.046;13.778;2022-08-25T07:11:33;71681.31;;;21.44;100.00
23131;BME280;11734;51.046;13.778;2022-08-25T07:14:06;71689.59;;;21.51;100.00
23131;BME280;11734;51.046;13.778;2022-08-25T07:16:36;71743.88;;;21.61;100.00
23131;BME280;11734;51.046;13.778;2022-08-25T07:19:06;71714.47;;;21.73;100.00
23131;BME280;11734;51.046;13.778;2022-08-25T07:21:38;71733.47;;;21.54;100.00
23131;BME280;11734;51.046;13.778;2022-08-25T07:24:09;71806.91;;;21.96;100.00
23131;BME280;11734;51.046;13.778;2022-08-25T07:26:39;71729.25;;;21.30;100.00
23131;BME280;11734;51.046;13.778;2022-08-25T07:29:34;71731.94;;;21.60;100.00
23131;BME280;11734;51.046;13.778;2022-08-25T07:32:08;71727.84;;;21.52;100.00
23131;BME280;11734;51.046;13.778;2022-08-25T07:34:36;71813.97;;;22.07;100.00
23131;BME280;11734;51.046;13.778;2022-08-25T07:37:22;71797.31;;;22.27;100.00
23131;BME280;11734;51.046;13.778;2022-08-25T07:40:15;71836.44;;;22.31;100.00
23131;BME280;11734;51.046;13.778;2022-08-25T07:42:44;71870.69;;;22.44;100.00
23131;BME280;11734;51.046;13.778;2022-08-25T07:45:13;71934.78;;;22.73;100.00
23131;BME280;11734;51.046;13.778;2022-08-25T07:47:43;71878.88;;;22.35;100.00
23131;BME280;11734;51.046;13.778;2022-08-25T07:50:12;71962.81;;;22.83;100.00
23131;BME280;11734;51.046;13.778;2022-08-25T07:52:40;71968.16;;;22.88;100.00
23131;BME280;11734;51.046;13.778;2022-08-25T07:55:09;71989.75;;;23.13;100.00
23131;BME280;11734;51.046;13.778;2022-08-25T07:57:40;71994.06;;;23.03;100.00
23131;BME280;11734;51.046;13.778;2022-08-25T08:00:11;72015.63;;;23.03;100.00
23131;BME280;11734;51.046;13.778;2022-08-25T08:02:41;72013.28;;;23.26;100.00
23131;BME280;11734;51.046;13.778;2022-08-25T08:05:11;72005.59;;;23.45;100.00
23131;BME280;11734;51.046;13.778;2022-08-25T08:07:40;72049.47;;;23.62;100.00
23131;BME280;11734;51.046;13.778;2022-08-25T08:10:13;72055.56;;;23.53;100.00
23131;BME280;11734;51.046;13.778;2022-08-25T08:13:01;72096.72;;;23.44;100.00
23131;BME280;11734;51.046;13.778;2022-08-25T08:15:28;72113.34;;;23.88;100.00
23131;BME280;11734;51.046;13.778;2022-08-25T08:17:58;72131.50;;;23.72;100.00
23131;BME280;11734;51.046;13.778;2022-08-25T08:20:26;72144.88;;;23.85;100.00
23131;BME280;11734;51.046;13.778;2022-08-25T08:22:54;72211.47;;;24.17;100.00
23131;BME280;11734;51.046;13.778;2022-08-25T08:25:22;72213.09;;;24.32;100.00
23131;BME280;11734;51.046;13.778;2022-08-25T08:27:55;72226.53;;;24.41;100.00
23131;BME280;11734;51.046;13.778;2022-08-25T08:30:23;72227.06;;;24.16;100.00
23131;BME280;11734;51.046;13.778;2022-08-25T08:32:53;72279.72;;;24.63;100.00
23131;BME280;11734;51.046;13.778;2022-08-25T08:35:41;72274.13;;;24.52;100.00
23131;BME280;11734;51.046;13.778;2022-08-25T08:38:09;72355.28;;;25.07;100.00
23131;BME280;11734;51.046;13.778;2022-08-25T08:40:59;72388.97;;;25.33;100.00
23131;BME280;11734;51.046;13.778;2022-08-25T08:43:57;72435.28;;;25.61;100.00
23131;BME280;11734;51.046;13.778;2022-08-25T08:46:59;72527.66;;;25.89;100.00
23131;BME280;11734;51.046;13.778;2022-08-25T08:52:16;72443.13;;;25.58;100.00
23131;BME280;11734;51.046;13.778;2022-08-25T08:54:53;72443.13;;;25.58;100.00
23131;BME280;11734;51.046;13.778;2022-08-25T08:57:26;72479.09;;;25.70;100.00
23131;BME280;11734;51.046;13.778;2022-08-25T09:00:04;72447.91;;;25.62;100.00
23131;BME280;11734;51.046;13.778;2022-08-25T09:02:48;72461.03;;;25.44;100.00
23131;BME280;11734;51.046;13.778;2022-08-25T09:05:20;72479.06;;;25.75;100.00
23131;BME280;11734;51.046;13.778;2022-08-25T09:08:05;72544.41;;;25.98;100.00
23131;BME280;11734;51.046;13.778;2022-08-25T09:11:10;72624.97;;;26.41;100.00
23131;BME280;11734;51.046;13.778;2022-08-25T09:26:32;72711.19;;;26.66;100.00
23131;BME280;11734;51.046;13.778;2022-08-25T09:29:20;72569.66;;;26.31;100.00
23131;BME280;11734;51.046;13.778;2022-08-25T09:31:56;72744.88;;;27.06;100.00
23131;BME280;11734;51.046;13.778;2022-08-25T09:34:31;72876.47;;;27.57;98.62
23131;BME280;11734;51.046;13.778;2022-08-25T09:37:00;72932.25;;;27.91;95.13
23131;BME280;11734;51.046;13.778;2022-08-25T09:39:27;73156.38;;;28.61;92.60
23131;BME280;11734;51.046;13.778;2022-08-25T09:41:58;73134.63;;;28.95;88.57
23131;BME280;11734;51.046;13.778;2022-08-25T09:44:31;73281.28;;;29.36;85.40
23131;BME280;11734;51.046;13.778;2022-08-25T09:49:57;73438.41;;;30.11;75.35
23131;BME280;11734;51.046;13.778;2022-08-25T09:52:40;73285.94;;;29.58;76.96
23131;BME280;11734;51.046;13.778;2022-08-25T09:57:51;73287.03;;;29.38;75.07
23131;BME280;11734;51.046;13.778;2022-08-25T10:00:29;73250.34;;;29.46;77.28
23131;BME280;11734;51.046;13.778;2022-08-25T10:03:33;73252.81;;;29.39;75.32
23131;BME280;11734;51.046;13.778;2022-08-25T10:06:07;73310.88;;;29.77;74.35
23131;BME280;11734;51.046;13.778;2022-08-25T10:11:13;73163.59;;;29.01;73.86
23131;BME280;11734;51.046;13.778;2022-08-25T10:13:46;73165.88;;;29.17;76.23
23131;BME280;11734;51.046;13.778;2022-08-25T10:16:29;73196.34;;;29.26;73.51
23131;BME280;11734;51.046;13.778;2022-08-25T10:22:26;73031.00;;;28.28;77.27
23131;BME280;11734;51.046;13.778;2022-08-25T10:25:03;73106.53;;;28.57;77.16
23131;BME280;11734;51.046;13.778;2022-08-25T10:28:00;73071.47;;;28.60;74.10
23131;BME280;11734;51.046;13.778;2022-08-25T10:40:31;72890.22;;;27.99;76.45
23131;BME280;11734;51.046;13.778;2022-08-25T10:46:19;72964.44;;;28.36;74.39
23131;BME280;11734;51.046;13.778;2022-08-25T10:49:14;73160.06;;;28.93;71.13
23131;BME280;11734;51.046;13.778;2022-08-25T11:00:10;73592.84;;;31.13;62.80
23131;BME280;11734;51.046;13.778;2022-08-25T11:06:04;73259.66;;;29.52;64.85
23131;BME280;11734;51.046;13.778;2022-08-25T11:08:54;73283.66;;;29.42;66.35
23131;BME280;11734;51.046;13.778;2022-08-25T11:11:48;73423.50;;;30.19;65.09
23131;BME280;11734;51.046;13.778;2022-08-25T11:14:27;73583.28;;;30.91;62.13
23131;BME280;11734;51.046;13.778;2022-08-25T11:17:18;73681.81;;;30.98;60.67
23131;BME280;11734;51.046;13.778;2022-08-25T11:19:52;73713.34;;;31.45;59.78
23131;BME280;11734;51.046;13.778;2022-08-25T11:22:33;73714.84;;;31.49;59.02
23131;BME280;11734;51.046;13.778;2022-08-25T11:30:51;73813.66;;;31.76;58.49
23131;BME280;11734;51.046;13.778;2022-08-25T11:33:22;73639.31;;;31.08;59.49
23131;BME280;11734;51.046;13.778;2022-08-25T11:36:04;73411.19;;;30.40;61.28
23131;BME280;11734;51.046;13.778;2022-08-25T11:39:12;73431.88;;;30.30;63.94
23131;BME280;11734;51.046;13.778;2022-08-25T11:42:23;73629.56;;;31.09;60.68
23131;BME280;11734;51.046;13.778;2022-08-25T11:51:29;74024.56;;;32.80;55.01
23131;BME280;11734;51.046;13.778;2022-08-25T11:54:26;74189.81;;;33.31;54.64
23131;BME280;11734;51.046;13.778;2022-08-25T11:57:04;74215.09;;;33.36;52.91
23131;BME280;11734;51.046;13.778;2022-08-25T12:02:44;73865.75;;;32.02;54.06
23131;BME280;11734;51.046;13.778;2022-08-25T12:11:06;73534.72;;;30.62;58.04
23131;BME280;11734;51.046;13.778;2022-08-25T12:19:28;73480.06;;;30.66;58.77
23131;BME280;11734;51.046;13.778;2022-08-25T12:30:21;73252.41;;;29.51;63.72
23131;BME280;11734;51.046;13.778;2022-08-25T12:36:00;73171.59;;;29.19;65.00
23131;BME280;11734;51.046;13.778;2022-08-25T12:38:38;73234.06;;;29.37;65.42
23131;BME280;11734;51.046;13.778;2022-08-25T12:41:15;73187.78;;;29.37;64.57
23131;BME280;11734;51.046;13.778;2022-08-25T12:43:47;73158.63;;;29.15;64.64
23131;BME280;11734;51.046;13.778;2022-08-25T12:48:53;73202.91;;;29.36;65.48
23131;BME280;11734;51.046;13.778;2022-08-25T12:51:39;73267.16;;;29.61;64.82
23131;BME280;11734;51.046;13.778;2022-08-25T12:54:44;73303.88;;;29.82;60.95
23131;BME280;11734;51.046;13.778;2022-08-25T12:57:26;73264.97;;;29.66;61.38
23131;BME280;11734;51.046;13.778;2022-08-25T13:05:58;73295.41;;;29.80;62.07
23131;BME280;11734;51.046;13.778;2022-08-25T13:12:22;73224.06;;;29.40;60.98
23131;BME280;11734;51.046;13.778;2022-08-25T13:14:55;73259.38;;;29.49;62.14
23131;BME280;11734;51.046;13.778;2022-08-25T13:17:29;73196.66;;;29.24;61.34
23131;BME280;11734;51.046;13.778;2022-08-25T13:20:25;73179.13;;;29.23;62.62
23131;BME280;11734;51.046;13.778;2022-08-25T13:22:59;73180.91;;;29.29;59.71
23131;BME280;11734;51.046;13.778;2022-08-25T13:25:29;73110.69;;;29.00;58.77
23131;BME280;11734;51.046;13.778;2022-08-25T13:28:04;73187.50;;;29.00;59.66
23131;BME280;11734;51.046;13.778;2022-08-25T13:30:37;73122.59;;;29.19;60.27
23131;BME280;11734;51.046;13.778;2022-08-25T13:33:20;73205.88;;;29.43;58.79
23131;BME280;11734;51.046;13.778;2022-08-25T13:35:56;73240.63;;;29.47;57.53
23131;BME280;11734;51.046;13.778;2022-08-25T13:38:45;73316.06;;;29.74;58.01
23131;BME280;11734;51.046;13.778;2022-08-25T13:41:23;73263.25;;;29.55;59.40
23131;BME280;11734;51.046;13.778;2022-08-25T13:43:56;73277.81;;;29.83;59.72
23131;BME280;11734;51.046;13.778;2022-08-25T13:46:28;73281.38;;;29.91;57.92
23131;BME280;11734;51.046;13.778;2022-08-25T13:49:06;73299.06;;;29.78;58.31
23131;BME280;11734;51.046;13.778;2022-08-25T13:51:37;73223.06;;;29.51;58.85
23131;BME280;11734;51.046;13.778;2022-08-25T13:54:28;73224.94;;;29.43;59.98
23131;BME280;11734;51.046;13.778;2022-08-25T13:59:41;73178.56;;;29.18;59.17
23131;BME280;11734;51.046;13.778;2022-08-25T14:02:41;73177.41;;;29.13;60.48
23131;BME280;11734;51.046;13.778;2022-08-25T14:05:12;73094.63;;;28.73;60.02
23131;BME280;11734;51.046;13.778;2022-08-25T14:07:52;73089.72;;;28.82;61.27
23131;BME280;11734;51.046;13.778;2022-08-25T14:10:43;73098.31;;;28.96;59.54
23131;BME280;11734;51.046;13.778;2022-08-25T14:16:21;73192.94;;;29.35;59.27
23131;BME280;11734;51.046;13.778;2022-08-25T14:18:55;73166.38;;;29.26;58.91
23131;BME280;11734;51.046;13.778;2022-08-25T14:21:28;73206.50;;;29.39;60.33
23131;BME280;11734;51.046;13.778;2022-08-25T14:23:57;73172.88;;;29.45;60.27
23131;BME280;11734;51.046;13.778;2022-08-25T14:26:26;73192.88;;;29.39;60.61
23131;BME280;11734;51.046;13.778;2022-08-25T14:28:53;73192.56;;;29.41;61.29
23131;BME280;11734;51.046;13.778;2022-08-25T14:31:26;73214.59;;;29.48;60.56
23131;BME280;11734;51.046;13.778;2022-08-25T14:34:03;73191.47;;;29.61;61.49
23131;BME280;11734;51.046;13.778;2022-08-25T14:36:33;73205.81;;;29.48;62.33
23131;BME280;11734;51.046;13.778;2022-08-25T14:39:02;73185.09;;;29.33;63.42
23131;BME280;11734;51.046;13.778;2022-08-25T14:41:38;73199.78;;;29.47;62.95
23131;BME280;11734;51.046;13.778;2022-08-25T14:44:09;73221.75;;;29.59;62.57
23131;BME280;11734;51.046;13.778;2022-08-25T14:46:44;73229.72;;;29.47;60.60
23131;BME280;11734;51.046;13.778;2022-08-25T14:49:25;73137.88;;;29.34;61.36
23131;BME280;11734;51.046;13.778;2022-08-25T14:52:09;73110.66;;;29.34;62.71
23131;BME280;11734;51.046;13.778;2022-08-25T14:54:54;73151.22;;;29.32;62.73
23131;BME280;11734;51.046;13.778;2022-08-25T14:57:24;73154.16;;;29.09;63.66
23131;BME280;11734;51.046;13.778;2022-08-25T14:59:52;73060.94;;;28.88;64.42
23131;BME280;11734;51.046;13.778;2022-08-25T15:02:22;73096.59;;;28.90;64.00
23131;BME280;11734;51.046;13.778;2022-08-25T15:05:00;73018.09;;;28.79;65.24
23131;BME280;11734;51.046;13.778;2022-08-25T15:07:32;73030.88;;;28.72;65.03
23131;BME280;11734;51.046;13.778;2022-08-25T15:10:19;73043.66;;;28.60;65.80